Time;durP1;ratioP1;P1;durP2;ratioP2;P2;SDS_P1;SDS_P2;PMS_P1;PMS_P2;Temp;Humidity;BMP_temperature;BMP_pressure;BME280_temperature;BME280_humidity;BME280_pressure;Samples;Min_cycle;Max_cycle;Signal;HPM_P1;HPM_P2
2023/03/07 00:02:22;;;;;;;31.90;21.33;;;2.70;99.90;;;;;;4856659;29;20488;-57
2023/03/07 00:04:51;;;;;;;32.63;20.93;;;2.70;99.90;;;;;;4860082;29;20541;-58
2023/03/07 00:07:19;;;;;;;36.00;22.77;;;2.80;99.90;;;;;;4857384;29;20496;-58
2023/03/07 00:09:47;;;;;;;35.73;23.87;;;2.80;99.90;;;;;;4842832;29;20972;-58
2023/03/07 00:12:16;;;;;;;39.97;25.80;;;2.80;99.90;;;;;;4847869;29;20831;-58
2023/03/07 00:14:44;;;;;;;40.27;26.37;;;2.90;99.90;;;;;;4853259;29;20568;-58
2023/03/07 00:17:12;;;;;;;42.57;26.93;;;2.90;99.90;;;;;;4858127;29;20485;-58
2023/03/07 00:19:42;;;;;;;41.27;26.90;;;2.90;99.90;;;;;;4861281;29;20813;-58
2023/03/07 00:22:11;;;;;;;43.00;27.83;;;2.90;99.90;;;;;;4860257;29;20479;-58
2023/03/07 00:24:41;;;;;;;40.80;27.07;;;2.90;99.90;;;;;;4850758;29;20552;-57
2023/03/07 00:27:09;;;;;;;43.17;28.10;;;2.90;99.90;;;;;;4860982;29;20494;-58
2023/03/07 00:29:37;;;;;;;47.03;30.73;;;2.90;99.90;;;;;;4859586;29;20912;-58
2023/03/07 00:32:06;;;;;;;48.93;30.67;;;2.90;99.90;;;;;;4860350;29;20501;-58
2023/03/07 00:34:34;;;;;;;49.23;31.23;;;2.90;99.90;;;;;;4860877;29;20565;-58
2023/03/07 00:37:02;;;;;;;47.47;30.50;;;2.90;99.90;;;;;;4858057;29;20848;-58
2023/03/07 00:39:32;;;;;;;50.23;31.77;;;3.00;99.90;;;;;;4842145;29;20485;-58
2023/03/07 00:42:00;;;;;;;50.13;31.93;;;3.00;99.90;;;;;;4843809;29;20477;-57
2023/03/07 00:44:29;;;;;;;49.63;32.00;;;3.00;99.90;;;;;;4851651;29;20480;-57
2023/03/07 00:46:57;;;;;;;50.50;31.67;;;3.00;99.90;;;;;;4859693;29;20507;-58
2023/03/07 00:49:26;;;;;;;50.60;32.30;;;3.00;99.90;;;;;;4860621;29;20497;-58
2023/03/07 00:51:54;;;;;;;52.03;33.47;;;3.00;99.90;;;;;;4860689;29;20923;-58
2023/03/07 00:54:22;;;;;;;49.53;31.13;;;3.00;99.90;;;;;;4849178;29;20478;-56
2023/03/07 00:56:52;;;;;;;52.47;33.97;;;3.00;99.90;;;;;;4842446;29;20466;-57
2023/03/07 00:59:20;;;;;;;55.10;33.73;;;3.10;99.90;;;;;;4840884;29;20483;-58
2023/03/07 01:01:48;;;;;;;53.77;32.60;;;3.10;99.90;;;;;;4840410;29;20494;-57
2023/03/07 01:04:16;;;;;;;50.73;33.30;;;3.10;99.90;;;;;;4840921;29;20479;-58
2023/03/07 01:06:44;;;;;;;53.77;33.53;;;3.00;99.90;;;;;;4840555;29;20496;-57
2023/03/07 01:09:12;;;;;;;53.80;33.50;;;3.00;99.90;;;;;;4840811;29;20476;-58
2023/03/07 01:11:41;;;;;;;47.60;31.50;;;3.10;99.90;;;;;;4840853;29;21031;-58
2023/03/07 01:14:11;;;;;;;50.50;31.67;;;3.10;99.90;;;;;;4852579;29;20475;-56
2023/03/07 01:16:39;;;;;;;47.37;31.23;;;3.10;99.90;;;;;;4860453;29;20557;-58
2023/03/07 01:19:11;;;;;;;47.93;30.30;;;3.10;99.90;;;;;;4859401;29;20484;-58
2023/03/07 01:21:41;;;;;;;47.87;30.40;;;3.10;99.90;;;;;;4858998;29;20479;-58
2023/03/07 01:24:12;;;;;;;50.60;33.27;;;3.10;99.90;;;;;;4852012;29;20479;-57
2023/03/07 01:26:41;;;;;;;44.87;30.13;;;3.10;99.90;;;;;;4856015;29;20541;-58
2023/03/07 01:29:12;;;;;;;45.77;30.33;;;3.10;99.90;;;;;;4859046;29;20485;-58
2023/03/07 01:31:40;;;;;;;48.37;31.87;;;3.10;99.90;;;;;;4873907;29;20490;-57
2023/03/07 01:34:08;;;;;;;46.63;30.40;;;3.10;99.90;;;;;;4859080;29;20890;-58
2023/03/07 01:36:37;;;;;;;43.37;29.20;;;3.10;99.90;;;;;;4858810;29;20573;-57
2023/03/07 01:39:11;;;;;;;45.27;30.03;;;3.10;99.90;;;;;;4841339;29;21003;-58
2023/03/07 01:41:45;;;;;;;45.97;29.67;;;3.10;99.90;;;;;;4841109;29;20490;-58
2023/03/07 01:44:18;;;;;;;44.10;29.00;;;3.10;99.90;;;;;;4852974;29;20517;-58
2023/03/07 01:46:51;;;;;;;44.10;28.77;;;3.10;99.90;;;;;;4862301;29;20580;-58
2023/03/07 01:49:28;;;;;;;43.63;28.00;;;3.10;99.90;;;;;;4862546;29;20510;-57
2023/03/07 01:52:05;;;;;;;41.77;28.93;;;3.10;99.90;;;;;;4862483;29;20468;-57
2023/03/07 01:54:39;;;;;;;41.00;26.80;;;3.20;99.90;;;;;;4852010;29;21018;-58
2023/03/07 01:57:07;;;;;;;37.83;25.40;;;3.10;99.90;;;;;;4827072;29;20477;-58
2023/03/07 01:59:41;;;;;;;39.07;27.20;;;3.10;99.90;;;;;;4825359;29;20474;-58
2023/03/07 02:02:11;;;;;;;39.70;25.70;;;3.10;99.90;;;;;;4826506;29;20860;-58
2023/03/07 02:04:44;;;;;;;37.03;26.13;;;3.10;99.90;;;;;;4825308;29;20895;-58
2023/03/07 02:07:13;;;;;;;36.23;24.10;;;3.10;99.90;;;;;;4828135;29;20504;-57
2023/03/07 02:09:43;;;;;;;36.33;24.40;;;3.10;99.90;;;;;;4843433;29;20888;-58
2023/03/07 02:12:11;;;;;;;37.00;25.60;;;3.10;99.90;;;;;;4850308;29;20475;-58
2023/03/07 02:14:43;;;;;;;38.00;24.40;;;3.10;99.90;;;;;;4855544;29;20571;-58
2023/03/07 02:17:12;;;;;;;38.90;25.63;;;3.10;99.90;;;;;;4862240;29;20485;-58
2023/03/07 02:19:53;;;;;;;39.30;25.73;;;3.10;99.90;;;;;;4862048;29;20488;-58
2023/03/07 02:22:21;;;;;;;36.70;23.70;;;3.10;99.90;;;;;;4862084;29;20525;-58
2023/03/07 02:24:53;;;;;;;38.63;25.87;;;3.10;99.90;;;;;;4855344;29;20463;-58
2023/03/07 02:27:25;;;;;;;37.80;25.03;;;3.10;99.90;;;;;;4863421;29;20498;-58
2023/03/07 02:29:53;;;;;;;38.07;25.37;;;3.10;99.90;;;;;;4863192;29;21074;-58
2023/03/07 02:32:21;;;;;;;40.97;25.57;;;3.10;99.90;;;;;;4863323;29;20500;-58
2023/03/07 02:34:49;;;;;;;37.90;25.80;;;3.10;99.90;;;;;;4863929;29;20882;-58
2023/03/07 02:37:25;;;;;;;34.53;24.33;;;3.20;99.90;;;;;;4859127;29;20494;-58
2023/03/07 02:39:55;;;;;;;38.53;25.17;;;3.10;99.90;;;;;;4843569;29;20478;-58
2023/03/07 02:42:28;;;;;;;34.33;23.37;;;3.10;99.90;;;;;;4848949;29;20497;-57
2023/03/07 02:45:10;;;;;;;33.00;22.90;;;3.10;99.90;;;;;;4847333;29;20882;-58
2023/03/07 02:47:41;;;;;;;33.07;22.40;;;3.10;99.90;;;;;;4861428;29;21018;-58
2023/03/07 02:50:12;;;;;;;32.40;21.87;;;3.10;99.90;;;;;;4861570;29;20474;-57
2023/03/07 02:52:42;;;;;;;32.10;21.70;;;3.10;99.90;;;;;;4856843;29;20492;-57
2023/03/07 02:55:11;;;;;;;31.30;21.40;;;3.10;99.90;;;;;;4852409;29;20530;-58
2023/03/07 02:57:47;;;;;;;27.07;19.67;;;3.20;99.90;;;;;;4861236;29;21001;-56
2023/03/07 03:00:16;;;;;;;31.27;21.40;;;3.20;99.90;;;;;;4862222;29;20464;-57
2023/03/07 03:02:44;;;;;;;27.87;19.63;;;3.20;99.90;;;;;;4842432;29;20473;-57
2023/03/07 03:05:13;;;;;;;26.33;18.77;;;3.20;99.90;;;;;;4842829;29;20492;-57
2023/03/07 03:07:41;;;;;;;27.43;18.60;;;3.10;99.90;;;;;;4843763;29;20490;-57
2023/03/07 03:10:10;;;;;;;26.37;17.93;;;3.20;99.90;;;;;;4843845;29;20471;-58
2023/03/07 03:12:38;;;;;;;26.47;17.50;;;3.20;99.90;;;;;;4849936;29;20480;-55
2023/03/07 03:15:10;;;;;;;22.77;15.73;;;3.30;99.90;;;;;;4853977;29;21013;-57
2023/03/07 03:17:38;;;;;;;21.50;15.37;;;3.20;99.90;;;;;;4860842;29;20474;-57
2023/03/07 03:20:11;;;;;;;22.97;16.13;;;3.20;99.90;;;;;;4843798;29;20478;-58
2023/03/07 03:22:39;;;;;;;22.47;15.53;;;3.20;99.90;;;;;;4843644;29;20493;-57
2023/03/07 03:25:10;;;;;;;21.63;14.67;;;3.10;99.90;;;;;;4853172;29;20507;-58
2023/03/07 03:27:40;;;;;;;20.70;13.93;;;3.10;99.90;;;;;;4846218;29;21057;-58
2023/03/07 03:30:12;;;;;;;19.77;14.20;;;3.10;99.90;;;;;;4842282;29;20510;-57
2023/03/07 03:32:42;;;;;;;19.57;13.47;;;3.20;99.90;;;;;;4841900;29;20542;-57
2023/03/07 03:35:13;;;;;;;20.33;12.77;;;3.10;99.90;;;;;;4842370;29;20490;-55
2023/03/07 03:37:41;;;;;;;19.67;11.77;;;3.10;99.90;;;;;;4861315;29;21052;-57
2023/03/07 03:40:16;;;;;;;18.13;12.20;;;3.10;99.90;;;;;;4838696;29;20553;-57
2023/03/07 03:42:45;;;;;;;15.97;10.90;;;3.10;99.90;;;;;;4850769;29;20477;-56
2023/03/07 03:45:17;;;;;;;14.80;9.47;;;3.00;99.90;;;;;;4855714;29;20561;-57
2023/03/07 03:47:47;;;;;;;15.83;10.40;;;3.00;99.90;;;;;;4861556;29;20487;-57
2023/03/07 03:50:15;;;;;;;14.73;9.80;;;3.00;99.90;;;;;;4860520;29;20518;-57
2023/03/07 03:52:44;;;;;;;16.27;9.93;;;3.00;99.90;;;;;;4860145;29;20488;-56
2023/03/07 03:55:12;;;;;;;15.93;9.67;;;3.00;99.90;;;;;;4852586;29;20473;-57
2023/03/07 03:57:41;;;;;;;16.47;8.97;;;3.00;99.90;;;;;;4860454;29;20478;-57
2023/03/07 04:00:13;;;;;;;12.83;8.03;;;3.00;99.90;;;;;;4860298;29;20474;-58
2023/03/07 04:02:42;;;;;;;17.63;8.43;;;3.00;99.90;;;;;;4860071;29;20488;-57
2023/03/07 04:05:15;;;;;;;19.37;9.13;;;3.00;99.90;;;;;;4860262;29;20481;-57
2023/03/07 04:07:44;;;;;;;12.27;6.47;;;3.10;99.90;;;;;;4853875;29;20578;-57
2023/03/07 04:10:12;;;;;;;15.97;7.50;;;3.10;99.90;;;;;;4841548;29;20492;-57
2023/03/07 04:12:40;;;;;;;13.97;7.53;;;3.10;99.90;;;;;;4842218;29;20498;-56
2023/03/07 04:15:09;;;;;;;12.70;7.10;;;3.20;99.90;;;;;;4842810;29;20466;-56
2023/03/07 04:17:38;;;;;;;15.43;6.90;;;3.20;99.90;;;;;;4843806;29;20567;-57
2023/03/07 04:20:13;;;;;;;11.83;5.60;;;3.20;99.90;;;;;;4842988;29;20474;-58
2023/03/07 04:22:41;;;;;;;11.37;5.53;;;3.30;99.90;;;;;;4846372;29;20543;-57
2023/03/07 04:25:11;;;;;;;11.87;5.93;;;3.20;99.90;;;;;;4852162;29;20477;-57
2023/03/07 04:27:39;;;;;;;10.63;5.83;;;3.20;99.90;;;;;;4859615;29;20586;-57
2023/03/07 04:30:09;;;;;;;8.87;5.00;;;3.30;99.90;;;;;;4859754;29;20539;-57
2023/03/07 04:32:38;;;;;;;13.30;6.13;;;3.20;99.90;;;;;;4842241;29;20516;-57
2023/03/07 04:35:08;;;;;;;9.50;5.30;;;3.20;99.90;;;;;;4831338;29;20471;-57
2023/03/07 04:37:36;;;;;;;12.03;4.90;;;3.30;99.90;;;;;;4830908;29;20498;-57
2023/03/07 04:40:05;;;;;;;13.47;4.97;;;3.30;99.90;;;;;;4833746;29;20471;-57
2023/03/07 04:42:34;;;;;;;10.43;4.10;;;3.20;99.90;;;;;;4834299;29;20487;-58
2023/03/07 04:45:03;;;;;;;10.33;3.83;;;3.20;99.90;;;;;;4833307;29;20481;-57
2023/03/07 04:47:32;;;;;;;9.37;3.50;;;3.20;99.90;;;;;;4832534;29;20503;-57
2023/03/07 04:50:00;;;;;;;10.17;3.50;;;3.20;99.90;;;;;;4832385;29;20474;-57
2023/03/07 04:52:30;;;;;;;6.50;3.57;;;3.20;99.90;;;;;;4833359;29;20478;-57
2023/03/07 04:54:59;;;;;;;6.97;3.23;;;3.20;99.90;;;;;;4838335;29;20505;-57
2023/03/07 04:57:27;;;;;;;7.30;2.80;;;3.10;99.90;;;;;;4831645;29;20530;-56
2023/03/07 04:59:55;;;;;;;7.40;2.93;;;3.10;99.90;;;;;;4831098;29;20482;-56
2023/03/07 05:02:24;;;;;;;14.27;2.70;;;3.10;99.90;;;;;;4861271;29;20481;-57
2023/03/07 05:04:52;;;;;;;6.20;2.23;;;3.20;99.90;;;;;;4832274;29;20570;-57
2023/03/07 05:07:21;;;;;;;10.10;2.10;;;3.20;99.90;;;;;;4835562;29;20519;-57
2023/03/07 05:09:52;;;;;;;5.00;2.30;;;3.10;99.90;;;;;;4854403;29;20527;-58
2023/03/07 05:12:20;;;;;;;6.90;2.20;;;3.20;99.90;;;;;;4846225;29;20481;-58
2023/03/07 05:14:49;;;;;;;6.33;2.10;;;3.20;99.90;;;;;;4851154;29;20524;-57
2023/03/07 05:17:18;;;;;;;8.43;2.00;;;3.10;99.90;;;;;;4860405;29;21015;-57
2023/03/07 05:19:46;;;;;;;4.87;2.03;;;3.10;99.90;;;;;;4858489;29;20480;-57
2023/03/07 05:22:15;;;;;;;6.93;1.60;;;3.10;99.90;;;;;;4860337;29;21043;-57
2023/03/07 05:24:44;;;;;;;6.03;1.67;;;3.10;99.90;;;;;;4852345;29;20481;-57
2023/03/07 05:27:13;;;;;;;6.93;2.10;;;3.10;99.90;;;;;;4859087;29;20477;-57
2023/03/07 05:29:41;;;;;;;6.40;1.60;;;3.00;99.90;;;;;;4860077;29;20571;-58
2023/03/07 05:32:10;;;;;;;5.70;1.70;;;3.00;99.90;;;;;;4859873;29;20489;-57
2023/03/07 05:34:39;;;;;;;8.27;1.43;;;3.00;99.90;;;;;;4859002;29;20484;-57
2023/03/07 05:37:07;;;;;;;8.63;1.63;;;3.10;99.90;;;;;;4856965;29;20484;-57
2023/03/07 05:39:35;;;;;;;4.60;1.50;;;3.00;99.90;;;;;;4840287;29;20923;-57
2023/03/07 05:42:04;;;;;;;7.13;1.73;;;3.00;99.90;;;;;;4843745;29;20471;-58
2023/03/07 05:44:34;;;;;;;6.77;1.43;;;3.00;99.90;;;;;;4851037;29;20489;-58
2023/03/07 05:47:04;;;;;;;7.63;1.70;;;3.10;99.90;;;;;;4859026;29;20529;-57
2023/03/07 05:49:33;;;;;;;5.37;1.07;;;3.10;99.90;;;;;;4858639;29;20542;-57
2023/03/07 05:52:01;;;;;;;3.80;1.10;;;3.10;99.90;;;;;;4844385;29;20479;-57
2023/03/07 05:54:29;;;;;;;7.43;1.40;;;3.10;99.90;;;;;;4842661;29;20477;-57
2023/03/07 05:56:57;;;;;;;6.90;1.60;;;3.10;99.90;;;;;;4841296;29;20980;-58
2023/03/07 05:59:25;;;;;;;5.00;1.50;;;3.10;99.90;;;;;;4840386;29;20479;-56
2023/03/07 06:01:55;;;;;;;5.87;1.10;;;3.10;99.90;;;;;;4839722;29;20472;-57
2023/03/07 06:04:24;;;;;;;11.53;1.70;;;3.10;99.90;;;;;;4840420;29;20501;-57
2023/03/07 06:06:52;;;;;;;5.27;1.40;;;3.20;99.90;;;;;;4832859;29;20475;-57
2023/03/07 06:09:21;;;;;;;5.27;0.93;;;3.10;99.90;;;;;;4841446;29;20512;-57
2023/03/07 06:11:50;;;;;;;7.07;1.30;;;3.10;99.90;;;;;;4841727;29;20523;-57
2023/03/07 06:14:18;;;;;;;8.27;1.30;;;3.10;99.90;;;;;;4850977;29;20587;-57
2023/03/07 06:16:46;;;;;;;6.47;1.47;;;3.10;99.90;;;;;;4853104;29;20527;-57
2023/03/07 06:19:16;;;;;;;6.40;1.17;;;3.10;99.90;;;;;;4840038;29;20579;-57
2023/03/07 06:21:44;;;;;;;5.20;1.17;;;3.10;99.90;;;;;;4860718;29;20474;-58
2023/03/07 06:24:12;;;;;;;6.70;1.30;;;3.10;99.90;;;;;;4866746;29;20521;-57
2023/03/07 06:26:41;;;;;;;6.13;1.37;;;3.20;99.90;;;;;;4842569;29;20480;-58
2023/03/07 06:29:09;;;;;;;7.97;1.63;;;3.20;99.90;;;;;;4837379;29;20571;-58
2023/03/07 06:31:37;;;;;;;5.20;1.83;;;3.20;99.90;;;;;;4845547;29;20493;-58
2023/03/07 06:34:06;;;;;;;6.37;1.40;;;3.20;99.90;;;;;;4845493;29;20470;-58
2023/03/07 06:36:36;;;;;;;2.30;0.80;;;3.30;99.90;;;;;;4848816;29;20551;-58
2023/03/07 06:39:04;;;;;;;7.43;1.47;;;3.30;99.90;;;;;;4856917;29;20483;-57
2023/03/07 06:41:34;;;;;;;4.07;1.00;;;3.20;99.90;;;;;;4839733;29;20485;-53
2023/03/07 06:44:03;;;;;;;8.63;1.50;;;3.30;99.90;;;;;;4848681;29;20480;-56
2023/03/07 06:46:33;;;;;;;7.43;1.13;;;3.30;99.90;;;;;;4848413;29;20482;-57
2023/03/07 06:49:06;;;;;;;5.30;0.93;;;3.30;99.90;;;;;;4836329;29;21084;-58
2023/03/07 06:51:36;;;;;;;5.97;1.10;;;3.40;99.90;;;;;;4841575;29;21038;-56
2023/03/07 06:54:06;;;;;;;6.93;1.10;;;3.40;99.90;;;;;;4854830;29;20472;-58
2023/03/07 06:56:34;;;;;;;6.17;1.10;;;3.40;99.90;;;;;;4857600;29;20481;-57
2023/03/07 06:59:03;;;;;;;6.77;1.30;;;3.40;99.90;;;;;;4862622;29;21086;-58
2023/03/07 07:01:31;;;;;;;7.70;1.40;;;3.50;99.90;;;;;;4860932;29;20848;-57
2023/03/07 07:04:00;;;;;;;5.47;0.97;;;3.40;99.90;;;;;;4861260;29;20499;-58
2023/03/07 07:06:29;;;;;;;6.47;1.30;;;3.50;99.90;;;;;;4861047;29;20889;-57
2023/03/07 07:08:59;;;;;;;5.07;0.90;;;3.60;99.90;;;;;;4862591;29;20552;-57
2023/03/07 07:11:32;;;;;;;8.83;1.47;;;3.60;99.90;;;;;;4861076;29;20479;-56
2023/03/07 07:14:01;;;;;;;5.17;1.20;;;3.60;99.90;;;;;;4853213;29;21030;-58
2023/03/07 07:16:32;;;;;;;10.57;1.50;;;3.60;99.90;;;;;;4858965;29;20511;-58
2023/03/07 07:19:00;;;;;;;6.10;1.10;;;3.60;99.90;;;;;;4849655;29;20819;-58
2023/03/07 07:21:29;;;;;;;7.57;1.43;;;3.70;99.90;;;;;;4842407;29;20483;-57
2023/03/07 07:23:58;;;;;;;9.80;1.57;;;3.80;99.90;;;;;;4850095;29;20554;-58
2023/03/07 07:26:27;;;;;;;7.73;1.50;;;3.80;99.90;;;;;;4856162;29;20566;-57
2023/03/07 07:28:57;;;;;;;6.40;1.50;;;3.90;99.90;;;;;;4845913;29;20503;-58
2023/03/07 07:31:25;;;;;;;6.43;1.83;;;4.00;99.90;;;;;;4841797;29;20482;-55
2023/03/07 07:33:54;;;;;;;6.87;1.70;;;4.00;99.90;;;;;;4842960;29;20491;-58
2023/03/07 07:36:25;;;;;;;7.97;1.60;;;4.00;99.90;;;;;;4842488;29;20467;-57
2023/03/07 07:38:54;;;;;;;7.30;1.37;;;4.10;99.90;;;;;;4847519;29;20503;-58
2023/03/07 07:41:23;;;;;;;5.77;1.60;;;4.00;99.90;;;;;;4852378;29;20474;-58
2023/03/07 07:43:54;;;;;;;13.73;1.97;;;4.00;99.90;;;;;;4861741;29;20484;-59
2023/03/07 07:46:31;;;;;;;5.60;1.20;;;4.10;99.90;;;;;;4851579;29;20480;-60
2023/03/07 07:48:59;;;;;;;5.97;1.30;;;4.10;99.90;;;;;;4855278;29;20504;-57
2023/03/07 07:51:28;;;;;;;8.07;1.50;;;4.20;99.90;;;;;;4841925;29;20499;-57
2023/03/07 07:53:56;;;;;;;7.20;2.10;;;4.20;99.90;;;;;;4850296;29;20947;-58
2023/03/07 07:56:26;;;;;;;8.50;1.77;;;4.20;99.90;;;;;;4857461;29;20468;-57
2023/03/07 07:58:54;;;;;;;10.33;1.43;;;4.10;99.90;;;;;;4861803;29;20969;-57
2023/03/07 08:01:24;;;;;;;7.50;1.37;;;4.10;99.90;;;;;;4850067;29;20487;-58
2023/03/07 08:03:52;;;;;;;6.80;1.20;;;4.00;99.90;;;;;;4843132;29;20989;-57
2023/03/07 08:06:22;;;;;;;9.83;1.83;;;4.00;99.90;;;;;;4843338;29;20574;-58
2023/03/07 08:08:50;;;;;;;6.77;1.77;;;4.00;99.90;;;;;;4843520;29;20478;-57
2023/03/07 08:11:20;;;;;;;8.77;1.50;;;4.10;99.90;;;;;;4847833;29;20502;-57
2023/03/07 08:13:49;;;;;;;11.33;1.60;;;4.10;99.90;;;;;;4853203;29;20495;-57
2023/03/07 08:16:19;;;;;;;12.43;1.90;;;4.00;99.90;;;;;;4861851;29;20971;-56
2023/03/07 08:18:49;;;;;;;7.00;1.70;;;4.10;99.90;;;;;;4861376;29;20478;-57
2023/03/07 08:21:17;;;;;;;9.73;1.50;;;4.00;99.90;;;;;;4860362;29;20966;-57
2023/03/07 08:23:46;;;;;;;4.97;1.27;;;4.00;99.90;;;;;;4853248;29;20480;-58
2023/03/07 08:26:14;;;;;;;5.93;1.40;;;3.90;99.90;;;;;;4854876;29;20482;-58
2023/03/07 08:28:42;;;;;;;12.83;2.13;;;3.90;99.90;;;;;;4861192;29;20478;-58
2023/03/07 08:31:13;;;;;;;11.73;2.00;;;3.90;99.90;;;;;;4850099;29;21015;-57
2023/03/07 08:33:42;;;;;;;8.50;2.13;;;3.90;99.90;;;;;;4858720;29;20479;-58
2023/03/07 08:36:10;;;;;;;9.07;1.73;;;3.90;99.90;;;;;;4857912;29;20478;-58
2023/03/07 08:38:38;;;;;;;13.83;2.57;;;3.90;99.90;;;;;;4860701;29;20482;-58
2023/03/07 08:41:09;;;;;;;9.13;1.67;;;3.80;99.90;;;;;;4851003;29;20575;-58
2023/03/07 08:43:38;;;;;;;10.77;2.13;;;3.80;99.90;;;;;;4845399;29;20477;-58
2023/03/07 08:46:06;;;;;;;13.67;1.90;;;3.90;99.90;;;;;;4824548;29;20258;-57
2023/03/07 08:48:36;;;;;;;8.33;2.37;;;4.00;99.90;;;;;;4836672;29;21048;-58
2023/03/07 08:51:06;;;;;;;7.83;1.67;;;4.00;99.90;;;;;;4830855;29;20856;-58
2023/03/07 08:53:34;;;;;;;9.67;1.30;;;3.90;99.90;;;;;;4856564;29;20487;-58
2023/03/07 08:56:06;;;;;;;8.97;1.70;;;3.90;99.90;;;;;;4852999;29;20472;-57
2023/03/07 08:58:34;;;;;;;7.93;1.63;;;3.90;99.90;;;;;;4860788;29;20534;-58
2023/03/07 09:01:03;;;;;;;10.17;1.80;;;3.90;99.90;;;;;;4859975;29;21010;-58
2023/03/07 09:03:32;;;;;;;8.60;1.93;;;4.00;99.90;;;;;;4860683;29;20569;-58
2023/03/07 09:06:01;;;;;;;6.73;1.43;;;4.00;99.90;;;;;;4860521;29;20475;-57
2023/03/07 09:08:30;;;;;;;8.20;1.70;;;4.00;99.90;;;;;;4860614;29;20475;-57
2023/03/07 09:10:59;;;;;;;6.50;1.53;;;4.00;99.90;;;;;;4854622;29;20882;-57
2023/03/07 09:13:27;;;;;;;7.50;1.77;;;4.00;99.90;;;;;;4841911;29;20482;-57
2023/03/07 09:15:55;;;;;;;11.17;1.47;;;4.10;99.90;;;;;;4859750;29;20984;-57
2023/03/07 09:18:24;;;;;;;9.17;2.10;;;4.20;99.90;;;;;;4860704;29;20971;-57
2023/03/07 09:20:52;;;;;;;13.37;2.17;;;4.20;99.90;;;;;;4860310;29;20488;-57
2023/03/07 09:23:21;;;;;;;7.50;1.57;;;4.30;99.90;;;;;;4847182;29;20475;-57
2023/03/07 09:25:49;;;;;;;6.57;1.90;;;4.30;99.90;;;;;;4855633;29;20900;-57
2023/03/07 09:28:17;;;;;;;10.77;1.83;;;4.30;99.90;;;;;;4853898;29;20482;-57
2023/03/07 09:30:45;;;;;;;10.00;2.03;;;4.30;99.90;;;;;;4840428;29;20479;-57
2023/03/07 09:33:13;;;;;;;12.30;2.03;;;4.20;99.90;;;;;;4843490;29;20863;-57
2023/03/07 09:35:41;;;;;;;12.97;1.77;;;4.20;99.90;;;;;;4841698;29;20273;-58
2023/03/07 09:38:10;;;;;;;10.83;1.87;;;4.30;99.90;;;;;;4841486;29;20222;-58
2023/03/07 09:40:39;;;;;;;7.90;1.70;;;4.30;99.90;;;;;;4841329;29;20504;-57
2023/03/07 09:43:16;;;;;;;8.40;1.87;;;4.40;99.90;;;;;;4845813;29;20531;-58
2023/03/07 09:46:04;;;;;;;7.53;1.67;;;4.40;99.90;;;;;;4841570;29;20233;-57
2023/03/07 09:49:03;;;;;;;8.80;1.87;;;4.40;99.90;;;;;;4846212;29;21340;-57
2023/03/07 09:51:37;;;;;;;9.40;1.80;;;4.30;99.90;;;;;;4838879;29;20503;-58
2023/03/07 09:54:12;;;;;;;9.23;2.57;;;4.20;99.90;;;;;;4848267;29;20245;-58
2023/03/07 09:56:46;;;;;;;6.93;1.60;;;4.20;99.90;;;;;;4840865;29;20487;-58
2023/03/07 09:59:21;;;;;;;8.43;2.10;;;4.10;99.90;;;;;;4840844;29;20254;-58
2023/03/07 10:02:03;;;;;;;7.30;1.47;;;3.70;99.90;;;;;;4841107;29;20242;-57
2023/03/07 10:04:38;;;;;;;5.70;1.10;;;3.40;99.90;;;;;;4847002;29;21008;-58
2023/03/07 10:07:09;;;;;;;4.43;1.03;;;3.20;99.90;;;;;;4838196;29;20482;-58
2023/03/07 10:09:39;;;;;;;2.93;0.90;;;3.10;99.90;;;;;;4844337;29;20483;-58
2023/03/07 10:12:25;;;;;;;6.07;1.10;;;3.10;99.90;;;;;;4844564;29;20498;-58
2023/03/07 10:15:05;;;;;;;5.60;1.00;;;3.10;99.90;;;;;;4853221;29;20513;-58
2023/03/07 10:18:05;;;;;;;5.07;1.20;;;3.00;99.90;;;;;;4849116;29;20475;-57
2023/03/07 10:20:44;;;;;;;6.03;1.10;;;3.00;99.90;;;;;;4858447;29;20485;-58
2023/03/07 10:23:36;;;;;;;7.07;1.10;;;3.00;99.90;;;;;;4840890;29;20839;-57
2023/03/07 10:26:10;;;;;;;5.93;1.30;;;3.00;99.90;;;;;;4844488;29;20506;-57
2023/03/07 10:28:41;;;;;;;7.93;1.20;;;3.00;99.90;;;;;;4851013;29;20492;-57
2023/03/07 10:31:20;;;;;;;7.63;1.43;;;3.00;99.90;;;;;;4844381;29;20507;-57
2023/03/07 10:33:50;;;;;;;4.27;1.47;;;3.00;99.90;;;;;;4851578;29;20839;-58
2023/03/07 10:36:20;;;;;;;6.80;1.13;;;3.00;99.90;;;;;;4863053;29;20477;-57
2023/03/07 10:38:57;;;;;;;6.00;1.30;;;3.10;99.90;;;;;;4858844;29;20471;-58
2023/03/07 10:41:25;;;;;;;6.67;1.50;;;3.10;99.90;;;;;;4844280;29;20468;-57
2023/03/07 10:43:56;;;;;;;4.90;1.10;;;3.20;99.90;;;;;;4854642;29;20490;-57
2023/03/07 10:46:27;;;;;;;6.43;1.57;;;3.10;99.90;;;;;;4843469;29;20516;-57
2023/03/07 10:49:01;;;;;;;7.07;1.57;;;3.00;99.90;;;;;;4843405;29;20898;-57
2023/03/07 10:51:41;;;;;;;7.17;1.60;;;2.90;99.90;;;;;;4844052;29;20497;-57
2023/03/07 10:54:14;;;;;;;5.50;1.33;;;2.90;99.90;;;;;;4850778;29;20838;-58
2023/03/07 10:57:04;;;;;;;5.67;1.40;;;2.90;99.90;;;;;;4845050;29;20474;-57
2023/03/07 10:59:34;;;;;;;7.27;1.30;;;3.00;99.90;;;;;;4850462;29;20837;-57
2023/03/07 11:02:05;;;;;;;9.93;2.17;;;3.20;99.90;;;;;;4843561;29;20993;-57
2023/03/07 11:04:44;;;;;;;7.77;1.30;;;3.40;99.90;;;;;;4850498;29;20484;-57
2023/03/07 11:07:27;;;;;;;6.50;1.53;;;3.60;99.90;;;;;;4844037;29;20515;-58
2023/03/07 11:09:57;;;;;;;5.83;1.50;;;3.70;99.90;;;;;;4848639;29;20574;-57
2023/03/07 11:12:26;;;;;;;10.23;1.57;;;3.80;99.90;;;;;;4853169;29;20497;-57
2023/03/07 11:14:57;;;;;;;9.17;1.30;;;4.00;99.90;;;;;;4848171;29;20518;-58
2023/03/07 11:17:29;;;;;;;13.37;1.83;;;4.10;99.90;;;;;;4855034;29;20485;-57
2023/03/07 11:19:58;;;;;;;10.27;1.83;;;4.30;99.90;;;;;;4850305;29;20818;-57
2023/03/07 11:22:32;;;;;;;7.37;1.60;;;4.70;99.90;;;;;;4846785;29;21042;-58
2023/03/07 11:25:04;;;;;;;5.77;1.83;;;4.70;99.90;;;;;;4849259;29;20566;-57
2023/03/07 11:27:36;;;;;;;6.70;1.60;;;4.90;99.90;;;;;;4845581;29;20483;-58
2023/03/07 11:30:26;;;;;;;8.27;1.83;;;5.20;99.90;;;;;;4855008;29;20828;-57
2023/03/07 11:33:10;;;;;;;8.50;1.73;;;5.60;99.90;;;;;;4842113;29;20507;-57
2023/03/07 11:35:58;;;;;;;11.60;1.80;;;5.50;99.90;;;;;;4842936;29;20239;-56
2023/03/07 11:38:36;;;;;;;7.10;1.70;;;5.20;99.90;;;;;;4844113;29;20505;-56
2023/03/07 11:41:10;;;;;;;6.97;1.07;;;5.00;99.90;;;;;;4834827;29;20484;-57
2023/03/07 11:43:51;;;;;;;6.10;1.37;;;4.90;99.90;;;;;;4839572;29;20486;-57
2023/03/07 11:46:32;;;;;;;7.33;1.30;;;5.00;99.90;;;;;;4842588;29;20506;-57
2023/03/07 11:49:17;;;;;;;7.50;1.33;;;5.40;99.90;;;;;;4842764;29;20471;-54
2023/03/07 11:51:59;;;;;;;6.87;1.13;;;5.70;99.90;;;;;;4841978;29;20551;-57
2023/03/07 11:54:37;;;;;;;4.63;1.03;;;6.10;99.90;;;;;;4844695;29;20483;-57
2023/03/07 11:57:18;;;;;;;9.47;1.47;;;6.30;99.90;;;;;;4838999;29;20473;-58
2023/03/07 12:00:13;;;;;;;5.83;1.27;;;6.00;99.90;;;;;;4846372;29;20467;-57
2023/03/07 12:02:55;;;;;;;6.57;1.30;;;5.70;99.90;;;;;;4856589;29;20298;-57
2023/03/07 12:05:43;;;;;;;6.53;1.10;;;5.30;99.90;;;;;;4844345;29;20663;-57
2023/03/07 12:08:40;;;;;;;5.30;1.20;;;5.00;99.90;;;;;;4856426;29;20302;-57
2023/03/07 12:11:21;;;;;;;6.23;1.67;;;4.90;99.90;;;;;;4846109;29;20248;-58
2023/03/07 12:13:58;;;;;;;6.50;1.13;;;4.90;99.90;;;;;;4847690;29;20495;-57
2023/03/07 12:16:38;;;;;;;7.73;1.10;;;4.90;99.90;;;;;;4845816;29;20478;-55
2023/03/07 12:19:23;;;;;;;5.70;1.53;;;4.80;99.90;;;;;;4845733;29;20283;-57
2023/03/07 12:22:13;;;;;;;6.33;0.97;;;4.70;99.90;;;;;;4840458;29;20481;-57
2023/03/07 12:24:50;;;;;;;6.07;1.70;;;4.60;99.90;;;;;;4839844;29;20249;-57
2023/03/07 12:27:26;;;;;;;4.73;1.00;;;4.60;99.90;;;;;;4833896;29;20473;-57
2023/03/07 12:30:00;;;;;;;3.30;0.83;;;4.90;99.90;;;;;;4834568;29;20481;-57
2023/03/07 12:32:31;;;;;;;5.23;1.10;;;5.20;99.90;;;;;;4848860;29;20515;-54
2023/03/07 12:35:06;;;;;;;4.93;0.90;;;5.60;99.90;;;;;;4859059;29;20474;-57
2023/03/07 12:37:41;;;;;;;2.70;0.63;;;5.90;99.90;;;;;;4857428;29;20517;-57
2023/03/07 12:40:18;;;;;;;4.43;1.10;;;6.00;99.90;;;;;;4846693;29;20319;-57
2023/03/07 12:42:54;;;;;;;4.47;0.90;;;5.90;99.90;;;;;;4841954;29;20239;-57
2023/03/07 12:45:26;;;;;;;5.57;0.90;;;5.50;99.90;;;;;;4845991;29;20237;-54
2023/03/07 12:48:01;;;;;;;5.83;1.80;;;5.30;99.90;;;;;;4839480;29;20245;-57
2023/03/07 12:50:38;;;;;;;5.13;1.10;;;5.40;99.90;;;;;;4840060;29;20482;-57
2023/03/07 12:53:15;;;;;;;9.57;1.47;;;5.40;99.90;;;;;;4843707;29;20853;-57
2023/03/07 12:55:46;;;;;;;4.07;0.90;;;5.60;99.90;;;;;;4843717;29;20238;-57
2023/03/07 12:58:21;;;;;;;3.73;0.80;;;5.50;99.90;;;;;;4842215;29;20576;-57
2023/03/07 13:00:54;;;;;;;6.83;1.00;;;5.40;99.90;;;;;;4844284;29;21126;-57
2023/03/07 13:03:34;;;;;;;6.03;1.00;;;5.20;99.90;;;;;;4842841;29;20240;-57
2023/03/07 13:06:04;;;;;;;8.40;1.40;;;5.00;99.90;;;;;;4832676;29;20239;-58
2023/03/07 13:08:33;;;;;;;3.87;1.07;;;5.00;99.90;;;;;;4837360;29;20321;-57
2023/03/07 13:11:02;;;;;;;5.27;0.87;;;5.10;99.90;;;;;;4847986;29;20239;-56
2023/03/07 13:13:50;;;;;;;7.23;1.67;;;5.20;99.90;;;;;;4840496;29;20320;-57